sensor_id;sensor_type;location;lat;lon;timestamp;temperature;humidity
15184;DHT22;7693;49.266;7.104;2024-03-02T00:00:22;7.20;99.90
15184;DHT22;7693;49.266;7.104;2024-03-02T00:02:50;7.20;99.90
15184;DHT22;7693;49.266;7.104;2024-03-02T00:05:19;7.20;99.90
15184;DHT22;7693;49.266;7.104;2024-03-02T00:07:46;7.20;99.90
15184;DHT22;7693;49.266;7.104;2024-03-02T00:10:16;7.20;99.90
15184;DHT22;7693;49.266;7.104;2024-03-02T00:12:47;7.20;99.90
15184;DHT22;7693;49.266;7.104;2024-03-02T00:18:14;7.20;99.90
15184;DHT22;7693;49.266;7.104;2024-03-02T00:20:41;7.20;99.90
15184;DHT22;7693;49.266;7.104;2024-03-02T00:23:09;7.20;99.90
15184;DHT22;7693;49.266;7.104;2024-03-02T00:28:14;7.20;99.90
15184;DHT22;7693;49.266;7.104;2024-03-02T00:33:16;7.10;99.90
15184;DHT22;7693;49.266;7.104;2024-03-02T00:35:44;7.10;99.90
15184;DHT22;7693;49.266;7.104;2024-03-02T00:38:10;7.00;99.90
15184;DHT22;7693;49.266;7.104;2024-03-02T00:40:36;7.00;99.90
15184;DHT22;7693;49.266;7.104;2024-03-02T00:43:02;7.00;99.90
15184;DHT22;7693;49.266;7.104;2024-03-02T00:45:28;7.00;99.90
15184;DHT22;7693;49.266;7.104;2024-03-02T00:47:55;7.00;99.90
15184;DHT22;7693;49.266;7.104;2024-03-02T00:50:21;7.00;99.90
15184;DHT22;7693;49.266;7.104;2024-03-02T00:52:47;7.00;99.90
15184;DHT22;7693;49.266;7.104;2024-03-02T00:55:15;7.00;99.90
15184;DHT22;7693;49.266;7.104;2024-03-02T00:57:41;7.00;99.90
15184;DHT22;7693;49.266;7.104;2024-03-02T01:00:07;7.10;99.90
15184;DHT22;7693;49.266;7.104;2024-03-02T01:02:36;7.10;99.90
15184;DHT22;7693;49.266;7.104;2024-03-02T01:05:01;7.10;99.90
15184;DHT22;7693;49.266;7.104;2024-03-02T01:07:27;7.10;99.90
15184;DHT22;7693;49.266;7.104;2024-03-02T01:09:52;7.10;99.90
15184;DHT22;7693;49.266;7.104;2024-03-02T01:12:18;7.00;99.90
15184;DHT22;7693;49.266;7.104;2024-03-02T01:14:44;7.00;99.90
15184;DHT22;7693;49.266;7.104;2024-03-02T01:17:10;7.00;99.90
15184;DHT22;7693;49.266;7.104;2024-03-02T01:19:36;7.00;99.90
15184;DHT22;7693;49.266;7.104;2024-03-02T01:24:27;7.00;99.90
15184;DHT22;7693;49.266;7.104;2024-03-02T01:26:52;7.00;99.90
15184;DHT22;7693;49.266;7.104;2024-03-02T01:29:18;7.00;99.90
15184;DHT22;7693;49.266;7.104;2024-03-02T01:31:45;7.10;99.90
15184;DHT22;7693;49.266;7.104;2024-03-02T01:34:10;7.10;99.90
15184;DHT22;7693;49.266;7.104;2024-03-02T01:36:38;7.10;99.90
15184;DHT22;7693;49.266;7.104;2024-03-02T01:39:03;7.10;99.90
15184;DHT22;7693;49.266;7.104;2024-03-02T01:41:29;7.10;99.90
15184;DHT22;7693;49.266;7.104;2024-03-02T01:43:55;7.10;99.90
15184;DHT22;7693;49.266;7.104;2024-03-02T01:46:21;7.10;99.90
15184;DHT22;7693;49.266;7.104;2024-03-02T01:48:46;7.10;99.90
15184;DHT22;7693;49.266;7.104;2024-03-02T01:51:13;7.10;99.90
15184;DHT22;7693;49.266;7.104;2024-03-02T01:53:38;7.10;99.90
15184;DHT22;7693;49.266;7.104;2024-03-02T01:56:04;7.10;99.90
15184;DHT22;7693;49.266;7.104;2024-03-02T01:58:30;7.20;99.90
15184;DHT22;7693;49.266;7.104;2024-03-02T02:00:56;7.20;99.90
15184;DHT22;7693;49.266;7.104;2024-03-02T02:03:21;7.30;99.90
15184;DHT22;7693;49.266;7.104;2024-03-02T02:05:47;7.40;99.90
15184;DHT22;7693;49.266;7.104;2024-03-02T02:08:13;7.40;99.90
15184;DHT22;7693;49.266;7.104;2024-03-02T02:10:39;7.50;99.90
15184;DHT22;7693;49.266;7.104;2024-03-02T02:13:04;7.50;99.90
15184;DHT22;7693;49.266;7.104;2024-03-02T02:15:30;7.50;99.90
15184;DHT22;7693;49.266;7.104;2024-03-02T02:17:57;7.60;99.90
15184;DHT22;7693;49.266;7.104;2024-03-02T02:20:24;7.60;99.90
15184;DHT22;7693;49.266;7.104;2024-03-02T02:23:03;7.60;99.90
15184;DHT22;7693;49.266;7.104;2024-03-02T02:25:30;7.60;99.90
15184;DHT22;7693;49.266;7.104;2024-03-02T02:27:57;7.60;99.90
15184;DHT22;7693;49.266;7.104;2024-03-02T02:30:27;7.60;99.90
15184;DHT22;7693;49.266;7.104;2024-03-02T02:32:53;7.60;99.90
15184;DHT22;7693;49.266;7.104;2024-03-02T02:35:19;7.60;99.90
15184;DHT22;7693;49.266;7.104;2024-03-02T02:37:46;7.70;99.90
15184;DHT22;7693;49.266;7.104;2024-03-02T02:40:12;7.70;99.90
15184;DHT22;7693;49.266;7.104;2024-03-02T02:42:38;7.80;99.90
15184;DHT22;7693;49.266;7.104;2024-03-02T02:45:05;7.80;99.90
15184;DHT22;7693;49.266;7.104;2024-03-02T02:47:31;7.90;99.90
15184;DHT22;7693;49.266;7.104;2024-03-02T02:50:01;7.90;99.90
15184;DHT22;7693;49.266;7.104;2024-03-02T02:52:31;8.00;99.90
15184;DHT22;7693;49.266;7.104;2024-03-02T02:54:58;8.00;99.90
15184;DHT22;7693;49.266;7.104;2024-03-02T02:57:24;8.00;99.90
15184;DHT22;7693;49.266;7.104;2024-03-02T02:59:50;8.00;99.90
15184;DHT22;7693;49.266;7.104;2024-03-02T03:02:15;8.10;99.90
15184;DHT22;7693;49.266;7.104;2024-03-02T03:04:41;8.10;99.90
15184;DHT22;7693;49.266;7.104;2024-03-02T03:07:06;8.10;99.90
15184;DHT22;7693;49.266;7.104;2024-03-02T03:09:32;8.10;99.90
15184;DHT22;7693;49.266;7.104;2024-03-02T03:11:58;8.10;99.90
15184;DHT22;7693;49.266;7.104;2024-03-02T03:14:23;8.10;99.90
15184;DHT22;7693;49.266;7.104;2024-03-02T03:16:49;8.20;99.90
15184;DHT22;7693;49.266;7.104;2024-03-02T03:19:15;8.20;99.90
15184;DHT22;7693;49.266;7.104;2024-03-02T03:21:42;8.10;99.90
15184;DHT22;7693;49.266;7.104;2024-03-02T03:24:08;8.20;99.90
15184;DHT22;7693;49.266;7.104;2024-03-02T03:26:36;8.20;99.90
15184;DHT22;7693;49.266;7.104;2024-03-02T03:29:02;8.20;99.90
15184;DHT22;7693;49.266;7.104;2024-03-02T03:31:28;8.30;99.90
15184;DHT22;7693;49.266;7.104;2024-03-02T03:33:54;8.30;99.90
15184;DHT22;7693;49.266;7.104;2024-03-02T03:36:20;8.30;99.90
15184;DHT22;7693;49.266;7.104;2024-03-02T03:38:46;8.40;99.90
15184;DHT22;7693;49.266;7.104;2024-03-02T03:41:11;8.40;99.90
15184;DHT22;7693;49.266;7.104;2024-03-02T03:43:37;8.40;99.90
15184;DHT22;7693;49.266;7.104;2024-03-02T03:46:03;8.40;99.90
15184;DHT22;7693;49.266;7.104;2024-03-02T03:48:28;8.40;99.90
15184;DHT22;7693;49.266;7.104;2024-03-02T03:50:56;8.40;99.90
15184;DHT22;7693;49.266;7.104;2024-03-02T03:53:22;8.40;99.90
15184;DHT22;7693;49.266;7.104;2024-03-02T03:55:48;8.40;99.90
15184;DHT22;7693;49.266;7.104;2024-03-02T03:58:15;8.40;99.90
15184;DHT22;7693;49.266;7.104;2024-03-02T04:00:42;8.40;99.90
15184;DHT22;7693;49.266;7.104;2024-03-02T04:03:07;8.40;99.90
15184;DHT22;7693;49.266;7.104;2024-03-02T04:05:33;8.40;99.90
15184;DHT22;7693;49.266;7.104;2024-03-02T04:07:59;8.40;99.90
15184;DHT22;7693;49.266;7.104;2024-03-02T04:10:25;8.40;99.90
15184;DHT22;7693;49.266;7.104;2024-03-02T04:12:51;8.40;99.90
15184;DHT22;7693;49.266;7.104;2024-03-02T04:15:17;8.40;99.90
15184;DHT22;7693;49.266;7.104;2024-03-02T04:17:44;8.40;99.90
15184;DHT22;7693;49.266;7.104;2024-03-02T04:20:10;8.40;99.90
15184;DHT22;7693;49.266;7.104;2024-03-02T04:22:38;8.40;99.90
15184;DHT22;7693;49.266;7.104;2024-03-02T04:25:04;8.40;99.90
15184;DHT22;7693;49.266;7.104;2024-03-02T04:27:30;8.30;99.90
15184;DHT22;7693;49.266;7.104;2024-03-02T04:29:57;8.30;99.90
15184;DHT22;7693;49.266;7.104;2024-03-02T04:32:23;8.30;99.90
15184;DHT22;7693;49.266;7.104;2024-03-02T04:34:48;8.30;99.90
15184;DHT22;7693;49.266;7.104;2024-03-02T04:37:14;8.30;99.90
15184;DHT22;7693;49.266;7.104;2024-03-02T04:39:40;8.30;99.90
15184;DHT22;7693;49.266;7.104;2024-03-02T04:42:06;8.30;99.90
15184;DHT22;7693;49.266;7.104;2024-03-02T04:44:31;8.30;99.90
15184;DHT22;7693;49.266;7.104;2024-03-02T04:46:57;8.30;99.90
15184;DHT22;7693;49.266;7.104;2024-03-02T04:49:23;8.30;99.90
15184;DHT22;7693;49.266;7.104;2024-03-02T04:51:49;8.30;99.90
15184;DHT22;7693;49.266;7.104;2024-03-02T04:54:14;8.30;99.90
15184;DHT22;7693;49.266;7.104;2024-03-02T04:56:40;8.30;99.90
15184;DHT22;7693;49.266;7.104;2024-03-02T04:59:11;8.30;99.90
15184;DHT22;7693;49.266;7.104;2024-03-02T05:01:36;8.30;99.90
15184;DHT22;7693;49.266;7.104;2024-03-02T05:04:02;8.30;99.90
15184;DHT22;7693;49.266;7.104;2024-03-02T05:06:28;8.30;99.90
15184;DHT22;7693;49.266;7.104;2024-03-02T05:08:53;8.40;99.90
15184;DHT22;7693;49.266;7.104;2024-03-02T05:11:19;8.30;99.90
15184;DHT22;7693;49.266;7.104;2024-03-02T05:14:03;8.40;99.90
15184;DHT22;7693;49.266;7.104;2024-03-02T05:16:33;8.30;99.90
15184;DHT22;7693;49.266;7.104;2024-03-02T05:18:59;8.40;99.90
15184;DHT22;7693;49.266;7.104;2024-03-02T05:21:24;8.40;99.90
15184;DHT22;7693;49.266;7.104;2024-03-02T05:23:50;8.40;99.90
15184;DHT22;7693;49.266;7.104;2024-03-02T05:26:15;8.30;99.90
15184;DHT22;7693;49.266;7.104;2024-03-02T05:28:42;8.30;99.90
15184;DHT22;7693;49.266;7.104;2024-03-02T05:31:10;8.30;99.90
15184;DHT22;7693;49.266;7.104;2024-03-02T05:33:38;8.30;99.90
15184;DHT22;7693;49.266;7.104;2024-03-02T05:36:04;8.30;99.90
15184;DHT22;7693;49.266;7.104;2024-03-02T05:38:30;8.30;99.90
15184;DHT22;7693;49.266;7.104;2024-03-02T05:40:55;8.30;99.90
15184;DHT22;7693;49.266;7.104;2024-03-02T05:43:21;8.30;99.90
15184;DHT22;7693;49.266;7.104;2024-03-02T05:45:47;8.30;99.90
15184;DHT22;7693;49.266;7.104;2024-03-02T05:48:12;8.30;99.90
15184;DHT22;7693;49.266;7.104;2024-03-02T05:50:38;8.30;99.90
15184;DHT22;7693;49.266;7.104;2024-03-02T05:53:04;8.20;99.90
15184;DHT22;7693;49.266;7.104;2024-03-02T05:55:29;8.20;99.90
15184;DHT22;7693;49.266;7.104;2024-03-02T05:57:56;8.20;99.90
15184;DHT22;7693;49.266;7.104;2024-03-02T06:00:45;8.20;99.90
15184;DHT22;7693;49.266;7.104;2024-03-02T06:03:10;8.20;99.90
15184;DHT22;7693;49.266;7.104;2024-03-02T06:05:36;8.20;99.90
15184;DHT22;7693;49.266;7.104;2024-03-02T06:08:02;8.20;99.90
15184;DHT22;7693;49.266;7.104;2024-03-02T06:10:27;8.20;99.90
15184;DHT22;7693;49.266;7.104;2024-03-02T06:12:53;8.20;99.90
15184;DHT22;7693;49.266;7.104;2024-03-02T06:15:18;8.20;99.90
15184;DHT22;7693;49.266;7.104;2024-03-02T06:17:44;8.20;99.90
15184;DHT22;7693;49.266;7.104;2024-03-02T06:20:10;8.20;99.90
15184;DHT22;7693;49.266;7.104;2024-03-02T06:22:36;8.20;99.90
15184;DHT22;7693;49.266;7.104;2024-03-02T06:25:02;8.20;99.90
15184;DHT22;7693;49.266;7.104;2024-03-02T06:27:27;8.20;99.90
15184;DHT22;7693;49.266;7.104;2024-03-02T06:29:53;8.20;99.90
15184;DHT22;7693;49.266;7.104;2024-03-02T06:32:20;8.20;99.90
15184;DHT22;7693;49.266;7.104;2024-03-02T06:34:45;8.20;99.90
15184;DHT22;7693;49.266;7.104;2024-03-02T06:37:11;8.30;99.90
15184;DHT22;7693;49.266;7.104;2024-03-02T06:39:38;8.30;99.90
15184;DHT22;7693;49.266;7.104;2024-03-02T06:42:04;8.30;99.90
15184;DHT22;7693;49.266;7.104;2024-03-02T06:44:29;8.30;99.90
15184;DHT22;7693;49.266;7.104;2024-03-02T06:46:55;8.30;99.90
15184;DHT22;7693;49.266;7.104;2024-03-02T06:49:21;8.30;99.90
15184;DHT22;7693;49.266;7.104;2024-03-02T06:51:46;8.30;99.90
15184;DHT22;7693;49.266;7.104;2024-03-02T06:54:12;8.30;99.90
15184;DHT22;7693;49.266;7.104;2024-03-02T06:56:37;8.40;99.90
15184;DHT22;7693;49.266;7.104;2024-03-02T06:59:04;8.40;99.90
15184;DHT22;7693;49.266;7.104;2024-03-02T07:01:30;8.40;99.90
15184;DHT22;7693;49.266;7.104;2024-03-02T07:03:55;8.40;99.90
15184;DHT22;7693;49.266;7.104;2024-03-02T07:06:21;8.40;99.90
15184;DHT22;7693;49.266;7.104;2024-03-02T07:08:47;8.40;99.90
15184;DHT22;7693;49.266;7.104;2024-03-02T07:11:12;8.50;99.90
15184;DHT22;7693;49.266;7.104;2024-03-02T07:13:38;8.40;99.90
15184;DHT22;7693;49.266;7.104;2024-03-02T07:16:04;8.40;99.90
15184;DHT22;7693;49.266;7.104;2024-03-02T07:18:48;8.40;99.90
15184;DHT22;7693;49.266;7.104;2024-03-02T07:21:17;8.50;99.90
15184;DHT22;7693;49.266;7.104;2024-03-02T07:23:43;8.50;99.90
15184;DHT22;7693;49.266;7.104;2024-03-02T07:26:08;8.50;99.90
15184;DHT22;7693;49.266;7.104;2024-03-02T07:28:34;8.50;99.90
15184;DHT22;7693;49.266;7.104;2024-03-02T07:31:04;8.50;99.90
15184;DHT22;7693;49.266;7.104;2024-03-02T07:33:30;8.50;99.90
15184;DHT22;7693;49.266;7.104;2024-03-02T07:35:57;8.60;99.90
15184;DHT22;7693;49.266;7.104;2024-03-02T07:38:24;8.60;99.90
15184;DHT22;7693;49.266;7.104;2024-03-02T07:40:50;8.60;99.90
15184;DHT22;7693;49.266;7.104;2024-03-02T07:43:19;8.60;99.90
15184;DHT22;7693;49.266;7.104;2024-03-02T07:45:46;8.70;99.90
15184;DHT22;7693;49.266;7.104;2024-03-02T07:48:11;8.70;99.90
15184;DHT22;7693;49.266;7.104;2024-03-02T07:50:37;8.80;99.90
15184;DHT22;7693;49.266;7.104;2024-03-02T07:53:05;8.80;99.90
15184;DHT22;7693;49.266;7.104;2024-03-02T07:55:31;8.80;99.90
15184;DHT22;7693;49.266;7.104;2024-03-02T07:57:57;8.90;99.90
15184;DHT22;7693;49.266;7.104;2024-03-02T08:00:23;8.90;99.90
15184;DHT22;7693;49.266;7.104;2024-03-02T08:02:50;9.00;99.90
15184;DHT22;7693;49.266;7.104;2024-03-02T08:05:19;9.00;99.90
15184;DHT22;7693;49.266;7.104;2024-03-02T08:07:45;9.00;99.90
15184;DHT22;7693;49.266;7.104;2024-03-02T08:10:11;9.00;99.90
15184;DHT22;7693;49.266;7.104;2024-03-02T08:12:37;9.10;99.90
15184;DHT22;7693;49.266;7.104;2024-03-02T08:15:03;9.10;99.90
15184;DHT22;7693;49.266;7.104;2024-03-02T08:17:30;9.10;99.90
15184;DHT22;7693;49.266;7.104;2024-03-02T08:19:56;9.10;99.90
15184;DHT22;7693;49.266;7.104;2024-03-02T08:22:22;9.00;99.90
15184;DHT22;7693;49.266;7.104;2024-03-02T08:24:48;9.10;99.90
15184;DHT22;7693;49.266;7.104;2024-03-02T08:27:14;9.10;99.90
15184;DHT22;7693;49.266;7.104;2024-03-02T08:29:40;9.10;99.90
15184;DHT22;7693;49.266;7.104;2024-03-02T08:32:07;9.10;99.90
15184;DHT22;7693;49.266;7.104;2024-03-02T08:34:32;9.10;99.90
15184;DHT22;7693;49.266;7.104;2024-03-02T08:37:01;9.10;99.90
15184;DHT22;7693;49.266;7.104;2024-03-02T08:39:27;9.10;99.90
15184;DHT22;7693;49.266;7.104;2024-03-02T08:41:53;9.20;99.90
15184;DHT22;7693;49.266;7.104;2024-03-02T08:44:19;9.20;99.90
15184;DHT22;7693;49.266;7.104;2024-03-02T08:46:45;9.30;99.90
15184;DHT22;7693;49.266;7.104;2024-03-02T08:49:11;9.30;99.90
15184;DHT22;7693;49.266;7.104;2024-03-02T08:51:36;9.30;99.90
15184;DHT22;7693;49.266;7.104;2024-03-02T08:54:02;9.40;99.90
15184;DHT22;7693;49.266;7.104;2024-03-02T08:56:30;9.40;99.90
15184;DHT22;7693;49.266;7.104;2024-03-02T08:58:56;9.40;99.90
15184;DHT22;7693;49.266;7.104;2024-03-02T09:01:21;9.50;99.90
15184;DHT22;7693;49.266;7.104;2024-03-02T09:03:47;9.60;99.90
15184;DHT22;7693;49.266;7.104;2024-03-02T09:06:14;9.70;99.90
15184;DHT22;7693;49.266;7.104;2024-03-02T09:08:42;9.80;99.90
15184;DHT22;7693;49.266;7.104;2024-03-02T09:11:10;9.80;99.90
15184;DHT22;7693;49.266;7.104;2024-03-02T09:13:36;9.90;99.90
15184;DHT22;7693;49.266;7.104;2024-03-02T09:16:02;10.00;99.90
15184;DHT22;7693;49.266;7.104;2024-03-02T09:18:29;10.00;99.90
15184;DHT22;7693;49.266;7.104;2024-03-02T09:20:55;10.00;99.90
15184;DHT22;7693;49.266;7.104;2024-03-02T09:23:21;10.10;99.90
15184;DHT22;7693;49.266;7.104;2024-03-02T09:25:46;10.10;99.90
15184;DHT22;7693;49.266;7.104;2024-03-02T09:28:12;10.20;99.90
15184;DHT22;7693;49.266;7.104;2024-03-02T09:30:38;10.20;99.90
15184;DHT22;7693;49.266;7.104;2024-03-02T09:33:03;10.30;99.90
15184;DHT22;7693;49.266;7.104;2024-03-02T09:35:29;10.30;99.90
15184;DHT22;7693;49.266;7.104;2024-03-02T09:37:55;10.40;99.90
15184;DHT22;7693;49.266;7.104;2024-03-02T09:40:24;10.50;99.90
15184;DHT22;7693;49.266;7.104;2024-03-02T09:42:51;10.50;99.90
15184;DHT22;7693;49.266;7.104;2024-03-02T09:45:23;10.60;99.90
15184;DHT22;7693;49.266;7.104;2024-03-02T09:47:49;10.70;99.90
15184;DHT22;7693;49.266;7.104;2024-03-02T09:50:16;10.70;99.90
15184;DHT22;7693;49.266;7.104;2024-03-02T09:52:48;10.80;99.90
15184;DHT22;7693;49.266;7.104;2024-03-02T09:55:15;10.80;99.90
15184;DHT22;7693;49.266;7.104;2024-03-02T09:57:41;10.90;99.90
15184;DHT22;7693;49.266;7.104;2024-03-02T10:00:08;11.00;99.90
15184;DHT22;7693;49.266;7.104;2024-03-02T10:02:34;11.00;99.90
15184;DHT22;7693;49.266;7.104;2024-03-02T10:04:59;11.10;99.90
15184;DHT22;7693;49.266;7.104;2024-03-02T10:07:25;11.20;99.90
15184;DHT22;7693;49.266;7.104;2024-03-02T10:09:51;11.30;99.90
15184;DHT22;7693;49.266;7.104;2024-03-02T10:12:18;11.40;99.90
15184;DHT22;7693;49.266;7.104;2024-03-02T10:14:44;11.50;99.90
15184;DHT22;7693;49.266;7.104;2024-03-02T10:17:11;11.50;99.90
15184;DHT22;7693;49.266;7.104;2024-03-02T10:19:38;11.40;99.90
15184;DHT22;7693;49.266;7.104;2024-03-02T10:22:05;11.40;99.90
15184;DHT22;7693;49.266;7.104;2024-03-02T10:24:38;11.40;99.90
15184;DHT22;7693;49.266;7.104;2024-03-02T10:27:16;11.40;99.90
15184;DHT22;7693;49.266;7.104;2024-03-02T10:29:45;11.50;99.90
15184;DHT22;7693;49.266;7.104;2024-03-02T10:32:11;11.50;99.90
15184;DHT22;7693;49.266;7.104;2024-03-02T10:34:41;11.50;99.90
15184;DHT22;7693;49.266;7.104;2024-03-02T10:37:07;11.60;99.90
15184;DHT22;7693;49.266;7.104;2024-03-02T10:39:34;11.60;99.90
15184;DHT22;7693;49.266;7.104;2024-03-02T10:42:02;11.70;99.90
15184;DHT22;7693;49.266;7.104;2024-03-02T10:44:32;11.90;99.90
15184;DHT22;7693;49.266;7.104;2024-03-02T10:47:01;12.10;99.90
15184;DHT22;7693;49.266;7.104;2024-03-02T10:49:33;12.30;99.90
15184;DHT22;7693;49.266;7.104;2024-03-02T10:51:59;12.50;99.90
15184;DHT22;7693;49.266;7.104;2024-03-02T10:54:25;12.60;99.90
15184;DHT22;7693;49.266;7.104;2024-03-02T10:57:01;12.70;99.90
15184;DHT22;7693;49.266;7.104;2024-03-02T10:59:36;12.60;99.90
15184;DHT22;7693;49.266;7.104;2024-03-02T11:02:03;12.60;99.90
15184;DHT22;7693;49.266;7.104;2024-03-02T11:04:31;12.60;99.90
15184;DHT22;7693;49.266;7.104;2024-03-02T11:07:09;12.70;99.90
15184;DHT22;7693;49.266;7.104;2024-03-02T11:09:38;12.70;99.90
15184;DHT22;7693;49.266;7.104;2024-03-02T11:12:12;12.70;99.90
15184;DHT22;7693;49.266;7.104;2024-03-02T11:14:41;12.70;99.90
15184;DHT22;7693;49.266;7.104;2024-03-02T11:17:09;12.70;99.90
15184;DHT22;7693;49.266;7.104;2024-03-02T11:19:38;12.80;99.90
15184;DHT22;7693;49.266;7.104;2024-03-02T11:22:04;12.80;99.90
15184;DHT22;7693;49.266;7.104;2024-03-02T11:24:31;12.90;99.90
15184;DHT22;7693;49.266;7.104;2024-03-02T11:27:01;12.80;99.90
15184;DHT22;7693;49.266;7.104;2024-03-02T11:32:06;12.80;99.90
15184;DHT22;7693;49.266;7.104;2024-03-02T11:34:38;12.80;99.90
15184;DHT22;7693;49.266;7.104;2024-03-02T11:37:10;12.80;99.90
15184;DHT22;7693;49.266;7.104;2024-03-02T11:39:39;12.80;99.90
15184;DHT22;7693;49.266;7.104;2024-03-02T11:42:08;13.00;99.90
15184;DHT22;7693;49.266;7.104;2024-03-02T11:44:38;13.20;99.90
15184;DHT22;7693;49.266;7.104;2024-03-02T11:47:09;13.30;99.90
15184;DHT22;7693;49.266;7.104;2024-03-02T11:49:46;13.40;99.90
15184;DHT22;7693;49.266;7.104;2024-03-02T11:52:14;13.50;99.90
15184;DHT22;7693;49.266;7.104;2024-03-02T11:54:42;13.60;99.90
15184;DHT22;7693;49.266;7.104;2024-03-02T11:57:12;13.60;99.90
15184;DHT22;7693;49.266;7.104;2024-03-02T11:59:39;13.60;99.90
15184;DHT22;7693;49.266;7.104;2024-03-02T12:02:06;13.70;99.90
15184;DHT22;7693;49.266;7.104;2024-03-02T12:04:32;13.80;99.90
15184;DHT22;7693;49.266;7.104;2024-03-02T12:07:01;13.80;99.90
15184;DHT22;7693;49.266;7.104;2024-03-02T12:09:29;14.00;99.90
15184;DHT22;7693;49.266;7.104;2024-03-02T12:12:06;14.00;99.90
15184;DHT22;7693;49.266;7.104;2024-03-02T12:14:34;14.00;99.90
15184;DHT22;7693;49.266;7.104;2024-03-02T12:17:00;14.00;99.90
15184;DHT22;7693;49.266;7.104;2024-03-02T12:19:27;14.00;99.90
15184;DHT22;7693;49.266;7.104;2024-03-02T12:21:59;14.00;99.90
15184;DHT22;7693;49.266;7.104;2024-03-02T12:24:29;13.90;99.90
15184;DHT22;7693;49.266;7.104;2024-03-02T12:26:55;13.70;99.90
15184;DHT22;7693;49.266;7.104;2024-03-02T12:29:22;13.70;99.90
15184;DHT22;7693;49.266;7.104;2024-03-02T12:31:49;13.70;99.90
15184;DHT22;7693;49.266;7.104;2024-03-02T12:34:16;13.80;99.90
15184;DHT22;7693;49.266;7.104;2024-03-02T12:36:42;13.90;99.90
15184;DHT22;7693;49.266;7.104;2024-03-02T12:39:09;13.80;99.90
15184;DHT22;7693;49.266;7.104;2024-03-02T12:41:38;13.80;99.90
15184;DHT22;7693;49.266;7.104;2024-03-02T12:44:05;13.80;99.90
15184;DHT22;7693;49.266;7.104;2024-03-02T12:46:31;13.80;99.90
15184;DHT22;7693;49.266;7.104;2024-03-02T12:48:58;13.80;99.90
15184;DHT22;7693;49.266;7.104;2024-03-02T12:51:24;13.90;99.90
15184;DHT22;7693;49.266;7.104;2024-03-02T12:53:57;13.80;99.90
15184;DHT22;7693;49.266;7.104;2024-03-02T12:56:24;13.80;99.90
15184;DHT22;7693;49.266;7.104;2024-03-02T12:58:59;13.70;99.90
15184;DHT22;7693;49.266;7.104;2024-03-02T13:01:25;13.60;99.90
15184;DHT22;7693;49.266;7.104;2024-03-02T13:03:52;13.60;99.90
15184;DHT22;7693;49.266;7.104;2024-03-02T13:06:19;13.60;99.90
15184;DHT22;7693;49.266;7.104;2024-03-02T13:08:45;13.60;99.90
15184;DHT22;7693;49.266;7.104;2024-03-02T13:11:12;13.60;99.90
15184;DHT22;7693;49.266;7.104;2024-03-02T13:13:40;13.50;99.90
15184;DHT22;7693;49.266;7.104;2024-03-02T13:16:14;13.50;99.90
15184;DHT22;7693;49.266;7.104;2024-03-02T13:18:42;13.50;99.90
15184;DHT22;7693;49.266;7.104;2024-03-02T13:21:08;13.40;99.90
15184;DHT22;7693;49.266;7.104;2024-03-02T13:23:34;13.40;99.90
15184;DHT22;7693;49.266;7.104;2024-03-02T13:26:00;13.40;99.90
15184;DHT22;7693;49.266;7.104;2024-03-02T13:28:26;13.30;99.90
15184;DHT22;7693;49.266;7.104;2024-03-02T13:30:52;13.30;99.90
15184;DHT22;7693;49.266;7.104;2024-03-02T13:33:18;13.20;99.90
15184;DHT22;7693;49.266;7.104;2024-03-02T13:35:49;13.20;99.90
15184;DHT22;7693;49.266;7.104;2024-03-02T13:38:17;13.20;99.90
15184;DHT22;7693;49.266;7.104;2024-03-02T13:40:43;13.20;99.90
15184;DHT22;7693;49.266;7.104;2024-03-02T13:43:08;13.10;99.90
15184;DHT22;7693;49.266;7.104;2024-03-02T13:45:34;13.10;99.90
15184;DHT22;7693;49.266;7.104;2024-03-02T13:48:02;13.00;99.90
15184;DHT22;7693;49.266;7.104;2024-03-02T13:50:28;12.90;99.90
15184;DHT22;7693;49.266;7.104;2024-03-02T13:52:55;12.90;99.90
15184;DHT22;7693;49.266;7.104;2024-03-02T13:55:21;12.90;99.90
15184;DHT22;7693;49.266;7.104;2024-03-02T13:57:47;12.90;99.90
15184;DHT22;7693;49.266;7.104;2024-03-02T14:00:14;13.00;99.90
15184;DHT22;7693;49.266;7.104;2024-03-02T14:02:41;13.00;99.90
15184;DHT22;7693;49.266;7.104;2024-03-02T14:05:07;13.00;99.90
15184;DHT22;7693;49.266;7.104;2024-03-02T14:07:37;13.00;99.90
15184;DHT22;7693;49.266;7.104;2024-03-02T14:10:03;13.10;99.90
15184;DHT22;7693;49.266;7.104;2024-03-02T14:12:29;13.20;99.90
15184;DHT22;7693;49.266;7.104;2024-03-02T14:14:55;13.20;99.90
15184;DHT22;7693;49.266;7.104;2024-03-02T14:17:24;13.30;99.90
15184;DHT22;7693;49.266;7.104;2024-03-02T14:19:49;13.50;99.90
15184;DHT22;7693;49.266;7.104;2024-03-02T14:22:16;13.50;99.90
15184;DHT22;7693;49.266;7.104;2024-03-02T14:24:43;13.70;99.90
15184;DHT22;7693;49.266;7.104;2024-03-02T14:27:09;13.70;99.90
15184;DHT22;7693;49.266;7.104;2024-03-02T14:29:35;13.70;99.90
15184;DHT22;7693;49.266;7.104;2024-03-02T14:32:03;13.70;99.90
15184;DHT22;7693;49.266;7.104;2024-03-02T14:34:29;13.70;99.90
15184;DHT22;7693;49.266;7.104;2024-03-02T14:36:55;13.80;99.90
15184;DHT22;7693;49.266;7.104;2024-03-02T14:39:21;13.80;99.90
15184;DHT22;7693;49.266;7.104;2024-03-02T14:41:46;13.80;99.90
15184;DHT22;7693;49.266;7.104;2024-03-02T14:44:12;13.80;99.90
15184;DHT22;7693;49.266;7.104;2024-03-02T14:46:38;13.80;99.90
15184;DHT22;7693;49.266;7.104;2024-03-02T14:49:04;13.80;99.90
15184;DHT22;7693;49.266;7.104;2024-03-02T14:51:29;13.70;99.90
15184;DHT22;7693;49.266;7.104;2024-03-02T14:53:55;13.60;99.90
15184;DHT22;7693;49.266;7.104;2024-03-02T14:56:21;13.50;99.90
15184;DHT22;7693;49.266;7.104;2024-03-02T14:58:47;13.50;99.90
15184;DHT22;7693;49.266;7.104;2024-03-02T15:01:13;13.40;99.90
15184;DHT22;7693;49.266;7.104;2024-03-02T15:03:40;13.30;99.90
15184;DHT22;7693;49.266;7.104;2024-03-02T15:06:05;13.30;99.90
15184;DHT22;7693;49.266;7.104;2024-03-02T15:08:33;13.30;99.90
15184;DHT22;7693;49.266;7.104;2024-03-02T15:10:59;13.30;99.90
15184;DHT22;7693;49.266;7.104;2024-03-02T15:13:26;13.30;99.90
15184;DHT22;7693;49.266;7.104;2024-03-02T15:15:52;13.30;99.90
15184;DHT22;7693;49.266;7.104;2024-03-02T15:18:18;13.40;99.90
15184;DHT22;7693;49.266;7.104;2024-03-02T15:20:43;13.50;99.90
15184;DHT22;7693;49.266;7.104;2024-03-02T15:23:09;13.60;99.90
15184;DHT22;7693;49.266;7.104;2024-03-02T15:25:35;13.70;99.90
15184;DHT22;7693;49.266;7.104;2024-03-02T15:28:00;13.80;99.90
15184;DHT22;7693;49.266;7.104;2024-03-02T15:30:26;13.80;99.90
15184;DHT22;7693;49.266;7.104;2024-03-02T15:32:51;13.80;99.90
15184;DHT22;7693;49.266;7.104;2024-03-02T15:35:17;13.80;99.90
15184;DHT22;7693;49.266;7.104;2024-03-02T15:37:43;13.70;99.90
15184;DHT22;7693;49.266;7.104;2024-03-02T15:40:09;13.70;99.90
15184;DHT22;7693;49.266;7.104;2024-03-02T15:42:35;13.60;99.90
15184;DHT22;7693;49.266;7.104;2024-03-02T15:45:01;13.60;99.90
15184;DHT22;7693;49.266;7.104;2024-03-02T15:47:27;13.60;99.90
15184;DHT22;7693;49.266;7.104;2024-03-02T15:49:53;13.60;99.90
15184;DHT22;7693;49.266;7.104;2024-03-02T15:52:19;13.60;99.90
15184;DHT22;7693;49.266;7.104;2024-03-02T15:54:46;13.50;99.90
15184;DHT22;7693;49.266;7.104;2024-03-02T15:57:12;13.50;99.90
15184;DHT22;7693;49.266;7.104;2024-03-02T15:59:38;13.50;99.90
15184;DHT22;7693;49.266;7.104;2024-03-02T16:02:03;13.50;99.90
15184;DHT22;7693;49.266;7.104;2024-03-02T16:04:29;13.50;99.90